createdAt,value
2022-11-21T00:00:06.369Z,99.99
2022-11-21T00:01:06.852Z,99.99
2022-11-21T00:02:07.303Z,99.99
2022-11-21T00:03:07.768Z,99.99
2022-11-21T00:04:08.448Z,99.99
2022-11-21T00:05:08.655Z,99.99
2022-11-21T00:06:08.844Z,99.99
2022-11-21T00:07:09.617Z,99.99
2022-11-21T00:08:10.108Z,99.99
2022-11-21T00:09:10.299Z,99.99
2022-11-21T00:10:11.508Z,99.99
2022-11-21T00:11:11.994Z,99.99
2022-11-21T00:12:11.904Z,99.99
2022-11-21T00:13:12.792Z,99.99
2022-11-21T00:14:13.142Z,99.54
2022-11-21T00:15:13.752Z,99.54
2022-11-21T00:16:14.663Z,99.06
2022-11-21T00:17:15.660Z,99.54
2022-11-21T00:18:16.296Z,99.91
2022-11-21T00:19:16.483Z,99.44
2022-11-21T00:20:17.124Z,99.73
2022-11-21T00:21:17.761Z,99.35
2022-11-21T00:22:18.681Z,99.16
2022-11-21T00:23:19.589Z,99.44
2022-11-21T00:24:19.779Z,99.35
2022-11-21T00:25:20.538Z,99.35
2022-11-21T00:26:21.431Z,99.54
2022-11-21T00:27:21.865Z,99.44
2022-11-21T00:28:22.511Z,99.99
2022-11-21T00:29:23.111Z,99.99
2022-11-21T00:30:23.721Z,99.99
2022-11-21T00:31:24.634Z,99.99
2022-11-21T00:32:25.249Z,99.91
2022-11-21T00:33:25.570Z,99.99
2022-11-21T00:34:26.760Z,99.73
2022-11-21T00:35:27.794Z,99.73
2022-11-21T00:36:28.399Z,99.63
2022-11-21T00:37:28.830Z,99.73
2022-11-21T00:38:30.013Z,99.73
2022-11-21T00:39:30.627Z,99.63
2022-11-21T00:40:31.843Z,99.35
2022-11-21T00:41:32.475Z,99.73
2022-11-21T00:42:32.672Z,99.63
2022-11-21T00:43:32.859Z,99.35
2022-11-21T00:44:34.117Z,98.78
2022-11-21T00:45:34.737Z,98.59
2022-11-21T00:46:35.626Z,98.87
2022-11-21T00:47:35.886Z,99.06
2022-11-21T00:48:36.367Z,99.06
2022-11-21T00:49:36.983Z,98.68
2022-11-21T00:50:37.303Z,98.11
2022-11-21T00:51:37.929Z,98.11
2022-11-21T00:52:38.144Z,98.59
2022-11-21T00:53:39.050Z,98.68
2022-11-21T00:54:39.956Z,98.78
2022-11-21T00:55:40.143Z,98.4
2022-11-21T00:56:41.064Z,98.49
2022-11-21T00:57:41.346Z,98.59
2022-11-21T00:58:41.841Z,98.59
2022-11-21T00:59:42.751Z,98.87
2022-11-21T01:00:43.491Z,98.3
2022-11-21T01:01:43.803Z,97.92
2022-11-21T01:02:44.288Z,98.87
2022-11-21T01:03:45.220Z,98.49
2022-11-21T01:04:45.113Z,97.74
2022-11-21T01:05:46.003Z,98.21
2022-11-21T01:06:46.896Z,98.49
2022-11-21T01:07:48.410Z,98.59
2022-11-21T01:08:48.734Z,98.4
2022-11-21T01:09:49.216Z,98.4
2022-11-21T01:10:49.695Z,98.68
2022-11-21T01:11:49.912Z,98.21
2022-11-21T01:12:50.856Z,98.78
2022-11-21T01:13:51.173Z,98.87
2022-11-21T01:14:52.084Z,99.06
2022-11-21T01:15:52.704Z,99.54
2022-11-21T01:16:53.912Z,99.63
2022-11-21T01:17:54.223Z,99.99
2022-11-21T01:18:54.549Z,99.99
2022-11-21T01:19:55.756Z,99.99
2022-11-21T01:20:56.088Z,99.99
2022-11-21T01:21:57.276Z,99.99
2022-11-21T01:22:57.872Z,99.99
2022-11-21T01:23:58.488Z,99.99
2022-11-21T01:24:59.396Z,99.99
2022-11-21T01:25:59.585Z,99.99
2022-11-21T01:27:00.075Z,99.99
2022-11-21T01:28:01.091Z,99.99
2022-11-21T01:29:01.318Z,99.99
2022-11-21T01:30:01.910Z,99.99
2022-11-21T01:31:02.812Z,99.99
2022-11-21T01:32:04.021Z,99.99
2022-11-21T01:33:03.911Z,99.99
2022-11-21T01:34:04.546Z,99.99
2022-11-21T01:35:04.440Z,99.99
2022-11-21T01:36:05.077Z,99.99
2022-11-21T01:37:05.975Z,99.99
2022-11-21T01:38:06.985Z,99.99
2022-11-21T01:39:07.216Z,99.99
2022-11-21T01:40:07.437Z,99.99
2022-11-21T01:41:07.627Z,99.99
2022-11-21T01:42:08.249Z,99.99
2022-11-21T01:43:08.491Z,99.99
2022-11-21T01:44:08.712Z,99.99
2022-11-21T01:45:09.623Z,99.99
2022-11-21T01:46:09.947Z,99.99
2022-11-21T01:47:10.849Z,99.99
2022-11-21T01:48:10.982Z,99.99
2022-11-21T01:49:11.888Z,99.73
2022-11-21T01:50:18.271Z,98.78
2022-11-21T01:51:12.453Z,98.3
2022-11-21T01:52:13.368Z,98.78
2022-11-21T01:53:13.976Z,98.68
2022-11-21T01:54:14.616Z,98.97
2022-11-21T01:55:15.258Z,99.16
2022-11-21T01:56:15.874Z,99.35
2022-11-21T01:57:16.788Z,99.44
2022-11-21T01:58:17.839Z,99.63
2022-11-21T01:59:18.357Z,99.63
2022-11-21T02:00:18.543Z,99.44
2022-11-21T02:01:19.546Z,99.44
2022-11-21T02:02:19.831Z,99.82
2022-11-21T02:03:20.454Z,98.97
2022-11-21T02:04:20.937Z,98.4
2022-11-21T02:05:20.946Z,98.02
2022-11-21T02:06:21.859Z,97.74
2022-11-21T02:07:22.577Z,97.55
2022-11-21T02:08:23.487Z,97.45
2022-11-21T02:09:24.103Z,96.78
2022-11-21T02:10:25.309Z,96.03
2022-11-21T02:11:26.223Z,95.36
2022-11-21T02:12:26.512Z,94.6
2022-11-21T02:13:27.005Z,95.07
2022-11-21T02:14:27.765Z,95.36
2022-11-21T02:15:28.408Z,95.12
2022-11-21T02:16:28.593Z,94.37
2022-11-21T02:17:28.924Z,95.07
2022-11-21T02:18:29.345Z,95.6
2022-11-21T02:19:29.959Z,95.7
2022-11-21T02:20:31.157Z,95.98
2022-11-21T02:21:32.068Z,96.08
2022-11-21T02:22:32.270Z,96.26
2022-11-21T02:23:32.752Z,96.74
2022-11-21T02:24:33.947Z,96.36
2022-11-21T02:25:34.582Z,96.93
2022-11-21T02:26:34.786Z,97.12
2022-11-21T02:27:35.105Z,96.93
2022-11-21T02:28:35.833Z,96.83
2022-11-21T02:29:36.361Z,97.22
2022-11-21T02:30:36.846Z,97.55
2022-11-21T02:31:37.360Z,97.36
2022-11-21T02:32:38.266Z,98.59
2022-11-21T02:33:38.478Z,98.11
2022-11-21T02:34:39.109Z,97.92
2022-11-21T02:35:39.592Z,97.83
2022-11-21T02:36:40.221Z,98.4
2022-11-21T02:37:40.853Z,98.4
2022-11-21T02:38:41.588Z,98.4
2022-11-21T02:39:42.499Z,98.11
2022-11-21T02:40:43.420Z,98.02
2022-11-21T02:41:44.054Z,98.78
2022-11-21T02:42:46.841Z,98.59
2022-11-21T02:43:44.818Z,98.97
2022-11-21T02:44:45.325Z,98.4
2022-11-21T02:45:45.512Z,98.59
2022-11-21T02:46:45.702Z,98.49
2022-11-21T02:47:46.616Z,98.49
2022-11-21T02:48:47.220Z,98.68
2022-11-21T02:49:47.132Z,98.49
2022-11-21T02:50:48.337Z,97.64
2022-11-21T02:51:49.231Z,98.4
2022-11-21T02:52:49.847Z,98.59
2022-11-21T02:53:50.456Z,97.92
2022-11-21T02:54:50.469Z,98.59
2022-11-21T02:55:51.488Z,98.59
2022-11-21T02:56:52.231Z,98.59
2022-11-21T02:57:52.869Z,97.83
2022-11-21T02:58:53.045Z,97.92
2022-11-21T02:59:53.252Z,97.83
2022-11-21T03:00:54.550Z,97.64
2022-11-21T03:01:55.310Z,96.97
2022-11-21T03:02:56.195Z,96.03
2022-11-21T03:03:57.101Z,95.65
2022-11-21T03:04:57.006Z,95.65
2022-11-21T03:05:57.616Z,95.93
2022-11-21T03:06:58.723Z,95.17
2022-11-21T03:07:58.896Z,95.27
2022-11-21T03:08:59.032Z,95.46
2022-11-21T03:09:59.674Z,94.74
2022-11-21T03:11:00.161Z,93.84
2022-11-21T03:12:00.364Z,92.71
2022-11-21T03:13:00.279Z,91.75
2022-11-21T03:14:01.544Z,91.42
2022-11-21T03:15:01.857Z,90.33
2022-11-21T03:16:02.757Z,90.43
2022-11-21T03:17:03.385Z,89.81
2022-11-21T03:18:03.723Z,89.95
2022-11-21T03:19:04.172Z,89.43
2022-11-21T03:20:05.087Z,89.24
2022-11-21T03:21:05.996Z,88.95
2022-11-21T03:22:07.190Z,88.53
2022-11-21T03:23:07.425Z,88.1
2022-11-21T03:24:08.059Z,87.72
2022-11-21T03:25:08.387Z,87.24
2022-11-21T03:26:08.584Z,87.05
2022-11-21T03:27:09.194Z,87.24
2022-11-21T03:28:10.098Z,87.49
2022-11-21T03:29:10.568Z,87.34
2022-11-21T03:30:10.779Z,86.96
2022-11-21T03:31:11.986Z,86.49
2022-11-21T03:32:12.467Z,86.2
2022-11-21T03:33:12.651Z,86.49
2022-11-21T03:34:13.563Z,86.01
2022-11-21T03:35:13.974Z,86.11
2022-11-21T03:36:14.934Z,86.11
2022-11-21T03:37:15.547Z,85.63
2022-11-21T03:38:16.181Z,85.91
2022-11-21T03:39:17.265Z,86.11
2022-11-21T03:40:17.154Z,86.11
2022-11-21T03:41:18.060Z,86.49
2022-11-21T03:42:18.396Z,87.82
2022-11-21T03:43:19.025Z,89.33
2022-11-21T03:44:19.553Z,90.38
2022-11-21T03:45:19.779Z,89.43
2022-11-21T03:46:19.668Z,89.05
2022-11-21T03:47:20.158Z,89.72
2022-11-21T03:48:21.060Z,90.66
2022-11-21T03:49:21.034Z,90.57
2022-11-21T03:50:21.936Z,92.61
2022-11-21T03:51:23.263Z,92.85
2022-11-21T03:52:24.173Z,93.23
2022-11-21T03:53:24.761Z,92.94
2022-11-21T03:54:25.003Z,93.65
2022-11-21T03:55:25.258Z,94.08
2022-11-21T03:56:25.866Z,93.89
2022-11-21T03:57:26.904Z,94.79
2022-11-21T03:58:27.536Z,95.36
2022-11-21T03:59:27.886Z,95.07
2022-11-21T04:00:28.502Z,96.22
2022-11-21T04:01:31.312Z,96.69
2022-11-21T04:02:28.491Z,96.69
2022-11-21T04:03:28.683Z,96.88
2022-11-21T04:04:29.312Z,96.97
2022-11-21T04:05:29.709Z,97.26
2022-11-21T04:06:29.913Z,97.26
2022-11-21T04:07:30.950Z,97.36
2022-11-21T04:08:31.597Z,97.64
2022-11-21T04:09:32.309Z,97.55
2022-11-21T04:10:32.212Z,97.69
2022-11-21T04:11:33.403Z,97.36
2022-11-21T04:12:33.880Z,97.45
2022-11-21T04:13:34.493Z,97.74
2022-11-21T04:14:35.622Z,98.02
2022-11-21T04:15:36.251Z,98.21
2022-11-21T04:16:36.869Z,97.92
2022-11-21T04:17:37.776Z,97.36
2022-11-21T04:18:38.118Z,98.35
2022-11-21T04:19:38.427Z,97.92
2022-11-21T04:20:38.616Z,97.97
2022-11-21T04:21:39.530Z,97.69
2022-11-21T04:22:40.136Z,97.83
2022-11-21T04:23:41.070Z,98.02
2022-11-21T04:24:41.984Z,97.97
2022-11-21T04:25:42.467Z,98.16
2022-11-21T04:26:42.502Z,97.97
2022-11-21T04:27:43.407Z,98.16
2022-11-21T04:28:43.448Z,97.97
2022-11-21T04:29:44.472Z,97.88
2022-11-21T04:30:45.001Z,97.69
2022-11-21T04:31:45.927Z,98.21
2022-11-21T04:32:46.111Z,98.16
2022-11-21T04:33:47.020Z,98.64
2022-11-21T04:34:46.941Z,98.64
2022-11-21T04:35:47.831Z,98.64
2022-11-21T04:36:48.843Z,98.54
2022-11-21T04:37:48.741Z,98.45
2022-11-21T04:38:49.334Z,97.74
2022-11-21T04:39:50.387Z,97.92
2022-11-21T04:40:50.595Z,97.92
2022-11-21T04:41:51.509Z,97.74
2022-11-21T04:42:51.990Z,97.36
2022-11-21T04:43:52.972Z,98.02
2022-11-21T04:44:53.621Z,98.02
2022-11-21T04:45:53.853Z,98.11
2022-11-21T04:46:54.054Z,97.83
2022-11-21T04:47:54.939Z,98.02
2022-11-21T04:48:55.851Z,97.92
2022-11-21T04:49:56.106Z,97.92
2022-11-21T04:50:56.722Z,98.21
2022-11-21T04:51:57.644Z,98.02
2022-11-21T04:52:57.833Z,98.59
2022-11-21T04:53:59.040Z,98.3
2022-11-21T04:54:59.376Z,98.49
2022-11-21T04:56:00.292Z,98.49
2022-11-21T04:57:00.629Z,99.06
2022-11-21T04:58:01.536Z,99.16
2022-11-21T04:59:02.152Z,98.78
2022-11-21T05:00:03.203Z,98.68
2022-11-21T05:01:03.693Z,98.68
2022-11-21T05:02:04.877Z,98.97
2022-11-21T05:03:05.486Z,99.06
2022-11-21T05:04:06.081Z,98.4
2022-11-21T05:05:06.692Z,98.4
2022-11-21T05:06:07.602Z,98.78
2022-11-21T05:07:07.583Z,98.59
2022-11-21T05:08:08.438Z,98.3
2022-11-21T05:09:09.352Z,98.3
2022-11-21T05:10:09.635Z,97.92
2022-11-21T05:11:10.551Z,97.92
2022-11-21T05:12:10.737Z,98.21
2022-11-21T05:13:11.931Z,98.21
2022-11-21T05:14:12.241Z,98.21
2022-11-21T05:15:13.509Z,98.35
2022-11-21T05:16:13.987Z,98.68
2022-11-21T05:17:14.613Z,98.68
2022-11-21T05:18:15.228Z,98.73
2022-11-21T05:19:15.832Z,99.02
2022-11-21T05:20:16.526Z,98.68
2022-11-21T05:21:17.443Z,99.02
2022-11-21T05:22:18.057Z,99.77
2022-11-21T05:23:18.392Z,99.68
2022-11-21T05:24:19.022Z,99.99
2022-11-21T05:25:19.960Z,99.99
2022-11-21T05:26:20.157Z,99.99
2022-11-21T05:27:20.645Z,99.99
2022-11-21T05:28:20.827Z,99.99
2022-11-21T05:29:25.239Z,99.99
2022-11-21T05:30:22.650Z,99.99
2022-11-21T05:31:22.919Z,99.99
2022-11-21T05:32:24.133Z,99.99
2022-11-21T05:33:24.321Z,99.99
2022-11-21T05:34:24.529Z,99.99
2022-11-21T05:35:25.392Z,99.99
2022-11-21T05:36:25.503Z,99.54
2022-11-21T05:37:26.110Z,99.91
2022-11-21T05:38:26.753Z,99.99
2022-11-21T05:39:27.682Z,99.99
2022-11-21T05:40:28.988Z,99.99
2022-11-21T05:41:29.915Z,99.99
2022-11-21T05:42:30.826Z,99.99
2022-11-21T05:43:31.463Z,99.99
2022-11-21T05:44:31.891Z,99.99
2022-11-21T05:45:32.536Z,99.99
2022-11-21T05:46:32.784Z,99.99
2022-11-21T05:47:34.123Z,99.99
2022-11-21T05:48:34.609Z,99.99
2022-11-21T05:49:35.533Z,99.99
2022-11-21T05:50:36.218Z,99.99
2022-11-21T05:51:37.406Z,99.99
2022-11-21T05:52:37.766Z,99.99
2022-11-21T05:53:38.377Z,99.99
2022-11-21T05:54:41.344Z,99.99
2022-11-21T05:55:39.905Z,99.99
2022-11-21T05:56:40.223Z,99.99
2022-11-21T05:57:41.134Z,99.99
2022-11-21T05:58:42.037Z,99.99
2022-11-21T05:59:42.241Z,99.99
2022-11-21T06:00:42.873Z,99.99
2022-11-21T06:01:43.638Z,99.99
2022-11-21T06:02:44.311Z,99.99
2022-11-21T06:03:44.531Z,99.99
2022-11-21T06:04:45.445Z,99.99
2022-11-21T06:05:46.356Z,99.99
2022-11-21T06:06:46.536Z,99.99
2022-11-21T06:07:46.621Z,99.99
2022-11-21T06:08:47.356Z,99.99
2022-11-21T06:09:47.561Z,99.99
2022-11-21T06:10:47.973Z,99.99
2022-11-21T06:11:48.887Z,99.99
2022-11-21T06:12:49.789Z,99.99
2022-11-21T06:13:50.697Z,99.99
2022-11-21T06:14:50.734Z,99.99
2022-11-21T06:15:51.983Z,99.99
2022-11-21T06:16:52.484Z,99.99
2022-11-21T06:17:52.373Z,99.99
2022-11-21T06:18:58.027Z,99.99
2022-11-21T06:19:54.037Z,99.99
2022-11-21T06:20:54.332Z,99.99
2022-11-21T06:21:55.009Z,99.99
2022-11-21T06:22:55.327Z,99.99
2022-11-21T06:23:55.431Z,99.99
2022-11-21T06:24:56.327Z,99.99
2022-11-21T06:25:56.939Z,99.99
2022-11-21T06:26:57.878Z,99.99
2022-11-21T06:27:58.496Z,99.99
2022-11-21T06:28:59.392Z,99.99
2022-11-21T06:30:00.311Z,99.99
2022-11-21T06:31:00.682Z,99.99
2022-11-21T06:32:01.187Z,99.99
2022-11-21T06:33:02.550Z,99.99
2022-11-21T06:34:02.309Z,99.99
2022-11-21T06:35:02.924Z,99.99
2022-11-21T06:36:03.837Z,99.99
2022-11-21T06:37:04.181Z,99.99
2022-11-21T06:38:04.403Z,99.99
2022-11-21T06:39:05.013Z,99.99
2022-11-21T06:40:05.632Z,99.99
2022-11-21T06:41:06.234Z,99.99
2022-11-21T06:42:06.577Z,99.99
2022-11-21T06:43:07.503Z,99.99
2022-11-21T06:44:07.411Z,99.99
2022-11-21T06:45:08.352Z,99.99
2022-11-21T06:46:09.004Z,99.99
2022-11-21T06:47:09.221Z,99.99
2022-11-21T06:48:09.405Z,99.99
2022-11-21T06:49:10.321Z,99.99
2022-11-21T06:50:10.908Z,99.99
2022-11-21T06:51:11.618Z,99.99
2022-11-21T06:52:11.950Z,99.99
2022-11-21T06:53:12.148Z,99.99
2022-11-21T06:54:16.675Z,99.99
2022-11-21T06:55:14.394Z,99.99
2022-11-21T06:56:14.980Z,99.99
2022-11-21T06:57:15.462Z,99.99
2022-11-21T06:58:16.101Z,99.99
2022-11-21T06:59:16.744Z,99.99
2022-11-21T07:00:16.779Z,99.99
2022-11-21T07:01:17.698Z,99.99
2022-11-21T07:02:18.550Z,99.99
2022-11-21T07:03:18.738Z,99.99
2022-11-21T07:04:19.227Z,99.99
2022-11-21T07:05:19.852Z,99.99
2022-11-21T07:06:19.771Z,99.99
2022-11-21T07:07:20.482Z,99.99
2022-11-21T07:08:21.574Z,99.99
2022-11-21T07:09:38.346Z,99.99
2022-11-21T07:10:23.373Z,99.99
2022-11-21T07:11:31.588Z,99.99
2022-11-21T07:12:32.500Z,99.99
2022-11-21T07:13:33.413Z,99.99
2022-11-21T07:14:33.615Z,99.99
2022-11-21T07:15:34.244Z,99.99
2022-11-21T07:16:34.926Z,99.99
2022-11-21T07:17:35.248Z,99.99
2022-11-21T07:18:35.861Z,99.99
2022-11-21T07:19:40.689Z,99.99
2022-11-21T07:20:37.052Z,99.99
2022-11-21T07:21:37.765Z,99.99
2022-11-21T07:22:38.374Z,99.99
2022-11-21T07:23:38.293Z,99.99
2022-11-21T07:24:39.232Z,99.99
2022-11-21T07:25:42.114Z,99.99
2022-11-21T07:26:40.027Z,99.99
2022-11-21T07:27:41.368Z,99.99
2022-11-21T07:28:42.261Z,99.99
2022-11-21T07:29:42.443Z,99.99
2022-11-21T07:30:42.650Z,99.99
2022-11-21T07:31:43.374Z,99.99
2022-11-21T07:32:43.887Z,99.99
2022-11-21T07:33:43.875Z,99.99
2022-11-21T07:34:44.529Z,99.99
2022-11-21T07:35:44.576Z,99.99
2022-11-21T07:36:45.490Z,99.99
2022-11-21T07:37:46.107Z,99.99
2022-11-21T07:38:47.575Z,99.99
2022-11-21T07:39:47.212Z,99.99
2022-11-21T07:40:47.847Z,99.99
2022-11-21T07:41:47.868Z,99.99
2022-11-21T07:42:48.492Z,99.99
2022-11-21T07:43:49.679Z,99.99
2022-11-21T07:44:49.892Z,99.99
2022-11-21T07:45:50.830Z,99.99
2022-11-21T07:46:51.519Z,99.99
2022-11-21T07:47:52.046Z,99.99
2022-11-21T07:48:52.535Z,99.99
2022-11-21T07:49:53.069Z,99.99
2022-11-21T07:50:53.617Z,99.99
2022-11-21T07:51:53.909Z,99.99
2022-11-21T07:52:54.846Z,99.99
2022-11-21T07:53:55.471Z,99.99
2022-11-21T07:54:56.386Z,99.99
2022-11-21T07:55:56.319Z,99.99
2022-11-21T07:56:57.247Z,99.99
2022-11-21T07:57:58.164Z,99.99
2022-11-21T07:58:58.648Z,99.99
2022-11-21T07:59:58.867Z,99.99
2022-11-21T08:00:59.052Z,99.99
2022-11-21T08:02:00.286Z,99.99
2022-11-21T08:03:01.089Z,99.99
2022-11-21T08:04:01.841Z,99.99
2022-11-21T08:05:01.759Z,99.99
2022-11-21T08:06:02.671Z,99.99
2022-11-21T08:07:03.223Z,99.99
2022-11-21T08:08:03.679Z,99.99
2022-11-21T08:09:04.234Z,99.99
2022-11-21T08:10:04.420Z,99.99
2022-11-21T08:11:05.396Z,99.99
2022-11-21T08:12:06.408Z,99.99
2022-11-21T08:13:06.913Z,99.99
2022-11-21T08:14:07.105Z,99.99
2022-11-21T08:15:08.321Z,99.99
2022-11-21T08:16:09.000Z,99.99
2022-11-21T08:17:09.679Z,99.99
2022-11-21T08:18:10.334Z,99.99
2022-11-21T08:19:10.977Z,99.99
2022-11-21T08:20:11.191Z,99.99
2022-11-21T08:21:15.742Z,99.99
2022-11-21T08:22:12.698Z,99.99
2022-11-21T08:23:13.635Z,99.99
2022-11-21T08:24:13.544Z,99.99
2022-11-21T08:25:14.461Z,99.99
2022-11-21T08:26:14.956Z,99.99
2022-11-21T08:27:15.421Z,99.99
2022-11-21T08:28:15.510Z,99.99
2022-11-21T08:29:16.018Z,99.99
2022-11-21T08:30:16.505Z,99.99
2022-11-21T08:31:16.756Z,99.99
2022-11-21T08:32:17.616Z,99.99
2022-11-21T08:33:18.164Z,99.99
2022-11-21T08:34:20.150Z,99.99
2022-11-21T08:35:19.355Z,99.99
2022-11-21T08:36:19.569Z,99.99
2022-11-21T08:37:20.520Z,99.99
2022-11-21T08:38:21.137Z,99.99
2022-11-21T08:39:21.766Z,99.99
2022-11-21T08:40:22.083Z,99.99
2022-11-21T08:41:23.491Z,99.99
2022-11-21T08:42:24.111Z,99.99
2022-11-21T08:43:24.333Z,99.99
2022-11-21T08:44:24.999Z,99.99
2022-11-21T08:45:25.658Z,99.99
2022-11-21T08:46:26.059Z,99.99
2022-11-21T08:47:26.283Z,99.99
2022-11-21T08:48:26.557Z,99.99
2022-11-21T08:49:27.784Z,99.99
2022-11-21T08:50:28.034Z,99.99
2022-11-21T08:51:28.964Z,99.99
2022-11-21T08:52:29.812Z,99.99
2022-11-21T08:53:30.271Z,99.99
2022-11-21T08:54:31.646Z,99.99
2022-11-21T08:55:31.574Z,99.99
2022-11-21T08:56:31.973Z,99.99
2022-11-21T08:57:33.192Z,99.99
2022-11-21T08:58:33.535Z,99.99
2022-11-21T08:59:34.066Z,99.99
2022-11-21T09:00:34.280Z,99.99
2022-11-21T09:01:34.659Z,99.99
2022-11-21T09:02:35.343Z,99.99
2022-11-21T09:03:37.081Z,99.99
2022-11-21T09:04:36.531Z,99.99
2022-11-21T09:05:36.572Z,99.99
2022-11-21T09:06:36.956Z,99.99
2022-11-21T09:07:38.082Z,99.99
2022-11-21T09:08:38.588Z,99.99
2022-11-21T09:09:39.509Z,99.99
2022-11-21T09:10:39.700Z,99.99
2022-11-21T09:11:40.329Z,99.99
2022-11-21T09:12:40.893Z,99.99
2022-11-21T09:13:41.101Z,99.99
2022-11-21T09:14:41.746Z,99.99
2022-11-21T09:15:42.938Z,99.99
2022-11-21T09:16:43.845Z,99.99
2022-11-21T09:17:44.848Z,99.99
2022-11-21T09:18:45.477Z,99.99
2022-11-21T09:19:45.469Z,99.99
2022-11-21T09:20:45.975Z,99.99
2022-11-21T09:21:46.986Z,99.99
2022-11-21T09:22:47.622Z,99.99
2022-11-21T09:23:47.815Z,99.99
2022-11-21T09:24:49.031Z,99.99
2022-11-21T09:25:48.941Z,99.99
2022-11-21T09:26:50.158Z,99.99
2022-11-21T09:27:52.233Z,99.99
2022-11-21T09:28:52.583Z,99.99
2022-11-21T09:29:59.127Z,99.99
2022-11-21T09:30:52.608Z,99.99
2022-11-21T09:31:52.745Z,99.99
2022-11-21T09:32:53.160Z,99.99
2022-11-21T09:34:00.117Z,99.99
2022-11-21T09:34:54.044Z,99.99
2022-11-21T09:35:54.977Z,99.99
2022-11-21T09:36:54.876Z,99.99
2022-11-21T09:37:56.070Z,99.99
2022-11-21T09:38:57.005Z,99.99
2022-11-21T09:39:57.637Z,99.99
2022-11-21T09:40:57.923Z,99.99
2022-11-21T09:41:58.595Z,99.99
2022-11-21T09:42:58.889Z,99.99
2022-11-21T09:44:01.353Z,99.99
2022-11-21T09:45:00.853Z,99.99
2022-11-21T09:46:01.049Z,99.99
2022-11-21T09:47:00.969Z,99.99
2022-11-21T09:48:01.624Z,99.99
2022-11-21T09:49:02.174Z,99.99
2022-11-21T09:50:02.860Z,99.99
2022-11-21T09:51:04.673Z,99.99
2022-11-21T09:52:04.601Z,99.99
2022-11-21T09:53:05.437Z,99.99
2022-11-21T09:54:05.649Z,99.99
2022-11-21T09:55:06.658Z,99.99
2022-11-21T09:56:07.402Z,99.99
2022-11-21T09:57:08.479Z,99.99
2022-11-21T09:58:08.960Z,99.99
2022-11-21T09:59:09.329Z,99.99
2022-11-21T10:00:09.824Z,99.99
2022-11-21T10:01:10.944Z,99.99
2022-11-21T10:02:10.899Z,99.99
2022-11-21T10:03:11.550Z,99.99
2022-11-21T10:04:11.963Z,99.99
2022-11-21T10:05:12.171Z,99.99
2022-11-21T10:06:12.810Z,99.99
2022-11-21T10:07:12.898Z,99.99
2022-11-21T10:08:13.714Z,99.99
2022-11-21T10:09:13.934Z,99.99
2022-11-21T10:10:14.171Z,99.99
2022-11-21T10:11:24.585Z,99.99
2022-11-21T10:12:14.516Z,99.99
2022-11-21T10:13:14.977Z,99.99
2022-11-21T10:14:15.474Z,99.99
2022-11-21T10:15:16.423Z,99.99
2022-11-21T10:16:16.790Z,99.99
2022-11-21T10:17:17.419Z,99.99
2022-11-21T10:18:18.151Z,99.99
2022-11-21T10:19:18.835Z,99.99
2022-11-21T10:20:19.547Z,99.99
2022-11-21T10:21:20.820Z,99.99
2022-11-21T10:22:21.482Z,99.99
2022-11-21T10:23:21.892Z,99.99
2022-11-21T10:24:22.823Z,99.99
2022-11-21T10:25:29.489Z,99.99
2022-11-21T10:26:23.976Z,99.99
2022-11-21T10:27:23.913Z,99.99
2022-11-21T10:28:24.871Z,99.99
2022-11-21T10:29:25.070Z,99.99
2022-11-21T10:30:26.287Z,99.99
2022-11-21T10:31:26.607Z,99.99
2022-11-21T10:32:27.258Z,99.99
2022-11-21T10:33:28.347Z,99.99
2022-11-21T10:34:28.802Z,99.99
2022-11-21T10:35:29.739Z,99.99
2022-11-21T10:36:30.653Z,99.99
2022-11-21T10:37:31.552Z,99.99
2022-11-21T10:38:31.755Z,99.99
2022-11-21T10:39:32.974Z,99.99
2022-11-21T10:40:33.187Z,99.99
2022-11-21T10:41:33.391Z,99.99
2022-11-21T10:42:34.303Z,99.99
2022-11-21T10:43:34.621Z,99.99
2022-11-21T10:44:35.594Z,99.99
2022-11-21T10:45:35.339Z,99.99
2022-11-21T10:46:36.558Z,99.99
2022-11-21T10:47:36.776Z,99.99
2022-11-21T10:48:37.349Z,99.99
2022-11-21T10:49:37.900Z,99.99
2022-11-21T10:50:38.835Z,99.99
2022-11-21T10:51:39.787Z,99.99
2022-11-21T10:52:40.385Z,99.99
2022-11-21T10:53:41.383Z,99.99
2022-11-21T10:54:41.748Z,99.99
2022-11-21T10:55:41.985Z,99.99
2022-11-21T10:56:42.930Z,99.99
2022-11-21T10:57:43.437Z,99.99
2022-11-21T10:58:43.698Z,99.99
2022-11-21T10:59:44.623Z,99.99
2022-11-21T11:00:44.929Z,99.99
2022-11-21T11:01:45.470Z,99.99
2022-11-21T11:02:47.062Z,99.99
2022-11-21T11:04:01.124Z,99.99
2022-11-21T11:04:58.252Z,99.99
2022-11-21T11:05:58.557Z,99.99
2022-11-21T11:07:00.083Z,99.99
2022-11-21T11:08:00.657Z,99.99
2022-11-21T11:09:01.142Z,99.99
2022-11-21T11:10:01.640Z,99.99
2022-11-21T11:11:02.037Z,99.99
2022-11-21T11:12:01.983Z,99.99
2022-11-21T11:13:05.094Z,99.99
2022-11-21T11:14:30.224Z,99.99
2022-11-21T11:15:30.903Z,99.99
2022-11-21T11:16:30.823Z,99.99
2022-11-21T11:17:32.123Z,99.99
2022-11-21T11:18:32.049Z,99.99
2022-11-21T11:19:44.131Z,99.99
2022-11-21T11:20:33.360Z,99.99
2022-11-21T11:21:33.277Z,99.99
2022-11-21T11:22:33.773Z,99.99
2022-11-21T11:23:33.998Z,99.99
2022-11-21T11:24:34.009Z,99.99
2022-11-21T11:25:34.647Z,99.99
2022-11-21T11:26:35.588Z,99.99
2022-11-21T11:27:36.227Z,99.99
2022-11-21T11:28:36.421Z,99.99
2022-11-21T11:29:37.210Z,99.99
2022-11-21T11:30:37.433Z,99.99
2022-11-21T11:31:37.945Z,99.99
2022-11-21T11:32:38.300Z,99.99
2022-11-21T11:33:38.249Z,99.99
2022-11-21T11:34:38.831Z,99.99
2022-11-21T11:35:39.902Z,99.99
2022-11-21T11:36:40.449Z,99.99
2022-11-21T11:37:47.049Z,99.99
2022-11-21T11:38:42.016Z,99.99
2022-11-21T11:39:41.930Z,99.99
2022-11-21T11:40:42.412Z,99.99
2022-11-21T11:41:42.704Z,99.99
2022-11-21T11:42:42.894Z,99.99
2022-11-21T11:43:43.805Z,99.99
2022-11-21T11:44:44.828Z,99.99
2022-11-21T11:45:45.027Z,99.99
2022-11-21T11:46:45.523Z,99.99
2022-11-21T11:47:50.285Z,99.99
2022-11-21T11:49:22.141Z,99.99
2022-11-21T11:49:47.926Z,99.99
2022-11-21T11:50:46.911Z,99.99
2022-11-21T11:51:47.471Z,99.99
2022-11-21T11:52:47.969Z,99.99
2022-11-21T11:53:49.254Z,99.99
2022-11-21T11:54:48.769Z,99.99
2022-11-21T11:55:49.099Z,99.99
2022-11-21T11:56:50.046Z,99.99
2022-11-21T11:57:50.252Z,99.99
2022-11-21T11:58:51.167Z,99.99
2022-11-21T11:59:52.181Z,99.99
2022-11-21T12:00:51.865Z,99.99
2022-11-21T12:01:52.404Z,99.99
2022-11-21T12:02:52.758Z,99.99
2022-11-21T12:03:57.754Z,99.13
2022-11-21T12:04:53.579Z,97.22
2022-11-21T12:05:53.941Z,94.93
2022-11-21T12:08:59.976Z,94.56
2022-11-21T12:10:00.487Z,93.98
2022-11-21T12:11:01.425Z,94.03
2022-11-21T12:12:01.635Z,95.08
2022-11-21T12:13:02.560Z,95.75
2022-11-21T12:14:03.196Z,96.03
2022-11-21T12:15:03.703Z,96.89
2022-11-21T12:16:13.540Z,94.79
2022-11-21T12:17:04.598Z,92.41
2022-11-21T12:18:05.289Z,93.17
2022-11-21T12:19:05.935Z,93.08
2022-11-21T12:20:06.871Z,91.84
2022-11-21T12:21:07.216Z,91.74
2022-11-21T12:22:07.787Z,90.89
2022-11-21T12:23:07.990Z,90.22
2022-11-21T12:24:08.953Z,90.27
2022-11-21T12:25:09.897Z,91.6
2022-11-21T12:26:10.257Z,93.51
2022-11-21T12:27:10.455Z,93.79
2022-11-21T12:28:10.696Z,91.41
2022-11-21T12:29:10.911Z,91.31
2022-11-21T12:30:11.830Z,91.6
2022-11-21T12:31:12.470Z,92.03
2022-11-21T12:32:13.204Z,93.94
2022-11-21T12:33:14.836Z,95.56
2022-11-21T12:34:13.515Z,97.17
2022-11-21T12:35:14.633Z,97.65
2022-11-21T12:36:24.689Z,96.55
2022-11-21T12:37:25.238Z,97.03
2022-11-21T12:38:25.741Z,96.36
2022-11-21T12:39:26.523Z,96.36
2022-11-21T12:40:27.007Z,95.98
2022-11-21T12:41:27.666Z,97.31
2022-11-21T12:42:28.582Z,97.79
2022-11-21T12:43:29.537Z,98.27
2022-11-21T12:44:30.093Z,97.98
2022-11-21T12:45:31.022Z,98.55
2022-11-21T12:46:31.343Z,98.27
2022-11-21T12:47:31.867Z,97.88
2022-11-21T12:48:32.084Z,97.98
2022-11-21T12:49:33.369Z,99.41
2022-11-21T12:50:33.478Z,99.99
2022-11-21T12:51:33.729Z,99.99
2022-11-21T12:52:34.122Z,99.99
2022-11-21T12:53:34.621Z,99.99
2022-11-21T12:54:35.229Z,99.65
2022-11-21T12:55:40.866Z,98.88
2022-11-21T12:56:36.909Z,99.99
2022-11-21T12:57:37.122Z,99.27
2022-11-21T12:58:37.854Z,98.13
2022-11-21T12:59:38.068Z,96.41
2022-11-21T13:00:38.441Z,96.31
2022-11-21T13:01:39.956Z,97.46
2022-11-21T13:02:40.546Z,96.98
2022-11-21T13:03:41.194Z,96.6